sensor_id;sensor_type;location;lat;lon;timestamp;P1;durP1;ratioP1;P2;durP2;ratioP2
22995;SDS011;11664;49.774;8.650;2023-04-15T00:01:32;6.57;;;6.07;;
22995;SDS011;11664;49.774;8.650;2023-04-15T00:03:58;7.13;;;5.57;;
22995;SDS011;11664;49.774;8.650;2023-04-15T00:06:33;4.70;;;4.40;;
22995;SDS011;11664;49.774;8.650;2023-04-15T00:09:02;4.00;;;3.80;;
22995;SDS011;11664;49.774;8.650;2023-04-15T00:11:30;7.75;;;3.78;;
22995;SDS011;11664;49.774;8.650;2023-04-15T00:14:02;4.80;;;4.35;;
22995;SDS011;11664;49.774;8.650;2023-04-15T00:16:31;5.47;;;5.07;;
22995;SDS011;11664;49.774;8.650;2023-04-15T00:18:57;4.43;;;4.03;;
22995;SDS011;11664;49.774;8.650;2023-04-15T00:21:22;3.97;;;3.78;;
22995;SDS011;11664;49.774;8.650;2023-04-15T00:23:48;4.10;;;3.70;;
22995;SDS011;11664;49.774;8.650;2023-04-15T00:26:16;4.03;;;3.72;;
22995;SDS011;11664;49.774;8.650;2023-04-15T00:28:46;4.30;;;3.90;;
22995;SDS011;11664;49.774;8.650;2023-04-15T00:31:12;4.72;;;3.80;;
22995;SDS011;11664;49.774;8.650;2023-04-15T00:33:46;6.70;;;3.60;;
22995;SDS011;11664;49.774;8.650;2023-04-15T00:36:21;4.00;;;3.70;;
22995;SDS011;11664;49.774;8.650;2023-04-15T00:38:50;4.35;;;4.05;;
22995;SDS011;11664;49.774;8.650;2023-04-15T00:41:16;4.40;;;4.10;;
22995;SDS011;11664;49.774;8.650;2023-04-15T00:43:43;4.10;;;3.80;;
22995;SDS011;11664;49.774;8.650;2023-04-15T00:46:24;4.30;;;4.10;;
22995;SDS011;11664;49.774;8.650;2023-04-15T00:48:52;5.13;;;4.82;;
22995;SDS011;11664;49.774;8.650;2023-04-15T00:51:19;5.22;;;4.88;;
22995;SDS011;11664;49.774;8.650;2023-04-15T00:53:44;8.85;;;8.35;;
22995;SDS011;11664;49.774;8.650;2023-04-15T00:56:13;6.38;;;5.88;;
22995;SDS011;11664;49.774;8.650;2023-04-15T00:58:44;5.50;;;5.20;;
22995;SDS011;11664;49.774;8.650;2023-04-15T01:01:19;6.68;;;6.05;;
22995;SDS011;11664;49.774;8.650;2023-04-15T01:03:49;5.80;;;5.30;;
22995;SDS011;11664;49.774;8.650;2023-04-15T01:06:22;4.45;;;4.15;;
22995;SDS011;11664;49.774;8.650;2023-04-15T01:08:51;4.82;;;4.57;;
22995;SDS011;11664;49.774;8.650;2023-04-15T01:11:21;4.53;;;4.18;;
22995;SDS011;11664;49.774;8.650;2023-04-15T01:13:48;6.22;;;4.32;;
22995;SDS011;11664;49.774;8.650;2023-04-15T01:16:18;9.80;;;9.02;;
22995;SDS011;11664;49.774;8.650;2023-04-15T01:18:50;9.23;;;8.73;;
22995;SDS011;11664;49.774;8.650;2023-04-15T01:21:19;7.65;;;6.97;;
22995;SDS011;11664;49.774;8.650;2023-04-15T01:23:49;7.20;;;6.70;;
22995;SDS011;11664;49.774;8.650;2023-04-15T01:26:20;8.27;;;7.75;;
22995;SDS011;11664;49.774;8.650;2023-04-15T01:28:53;7.15;;;6.63;;
22995;SDS011;11664;49.774;8.650;2023-04-15T01:31:26;5.82;;;5.15;;
22995;SDS011;11664;49.774;8.650;2023-04-15T01:33:52;5.78;;;5.38;;
22995;SDS011;11664;49.774;8.650;2023-04-15T01:36:17;7.38;;;6.10;;
22995;SDS011;11664;49.774;8.650;2023-04-15T01:38:49;6.25;;;5.75;;
22995;SDS011;11664;49.774;8.650;2023-04-15T01:43:53;4.05;;;3.67;;
22995;SDS011;11664;49.774;8.650;2023-04-15T01:46:22;5.78;;;5.40;;
22995;SDS011;11664;49.774;8.650;2023-04-15T01:48:48;10.00;;;9.30;;
22995;SDS011;11664;49.774;8.650;2023-04-15T01:51:23;11.18;;;10.50;;
22995;SDS011;11664;49.774;8.650;2023-04-15T01:53:48;7.55;;;7.15;;
22995;SDS011;11664;49.774;8.650;2023-04-15T01:56:14;9.55;;;8.82;;
22995;SDS011;11664;49.774;8.650;2023-04-15T01:58:42;8.27;;;7.80;;
22995;SDS011;11664;49.774;8.650;2023-04-15T02:01:08;9.30;;;8.80;;
22995;SDS011;11664;49.774;8.650;2023-04-15T02:03:37;8.40;;;7.90;;
22995;SDS011;11664;49.774;8.650;2023-04-15T02:06:03;8.68;;;7.97;;
22995;SDS011;11664;49.774;8.650;2023-04-15T02:08:36;8.68;;;8.07;;
22995;SDS011;11664;49.774;8.650;2023-04-15T02:11:01;7.60;;;7.13;;
22995;SDS011;11664;49.774;8.650;2023-04-15T02:13:27;5.70;;;5.28;;
22995;SDS011;11664;49.774;8.650;2023-04-15T02:15:53;5.32;;;4.93;;
22995;SDS011;11664;49.774;8.650;2023-04-15T02:18:22;10.40;;;9.80;;
22995;SDS011;11664;49.774;8.650;2023-04-15T02:20:49;11.55;;;10.80;;
22995;SDS011;11664;49.774;8.650;2023-04-15T02:23:19;5.55;;;5.05;;
22995;SDS011;11664;49.774;8.650;2023-04-15T02:25:54;5.72;;;5.35;;
22995;SDS011;11664;49.774;8.650;2023-04-15T02:28:23;5.18;;;4.78;;
22995;SDS011;11664;49.774;8.650;2023-04-15T02:30:48;5.93;;;5.63;;
22995;SDS011;11664;49.774;8.650;2023-04-15T02:33:18;5.55;;;5.22;;
22995;SDS011;11664;49.774;8.650;2023-04-15T02:35:47;5.70;;;5.40;;
22995;SDS011;11664;49.774;8.650;2023-04-15T02:38:12;9.48;;;8.98;;
22995;SDS011;11664;49.774;8.650;2023-04-15T02:40:43;10.63;;;9.88;;
22995;SDS011;11664;49.774;8.650;2023-04-15T02:43:09;10.20;;;9.60;;
22995;SDS011;11664;49.774;8.650;2023-04-15T02:45:34;5.45;;;5.05;;
22995;SDS011;11664;49.774;8.650;2023-04-15T02:48:00;5.95;;;5.45;;
22995;SDS011;11664;49.774;8.650;2023-04-15T02:50:33;5.45;;;4.97;;
22995;SDS011;11664;49.774;8.650;2023-04-15T02:53:01;5.40;;;5.10;;
22995;SDS011;11664;49.774;8.650;2023-04-15T02:55:27;5.20;;;4.80;;
22995;SDS011;11664;49.774;8.650;2023-04-15T02:57:53;5.90;;;5.43;;
22995;SDS011;11664;49.774;8.650;2023-04-15T03:00:27;5.45;;;5.15;;
22995;SDS011;11664;49.774;8.650;2023-04-15T03:02:57;5.78;;;5.28;;
22995;SDS011;11664;49.774;8.650;2023-04-15T03:05:32;5.43;;;5.03;;
22995;SDS011;11664;49.774;8.650;2023-04-15T03:07:57;8.15;;;7.63;;
22995;SDS011;11664;49.774;8.650;2023-04-15T03:10:38;4.85;;;4.55;;
22995;SDS011;11664;49.774;8.650;2023-04-15T03:13:04;6.15;;;5.63;;
22995;SDS011;11664;49.774;8.650;2023-04-15T03:15:32;6.38;;;5.88;;
22995;SDS011;11664;49.774;8.650;2023-04-15T03:17:58;6.35;;;5.85;;
22995;SDS011;11664;49.774;8.650;2023-04-15T03:20:30;6.93;;;6.25;;
22995;SDS011;11664;49.774;8.650;2023-04-15T03:23:00;6.05;;;5.65;;
22995;SDS011;11664;49.774;8.650;2023-04-15T03:25:25;6.05;;;5.53;;
22995;SDS011;11664;49.774;8.650;2023-04-15T03:27:57;6.90;;;6.45;;
22995;SDS011;11664;49.774;8.650;2023-04-15T03:30:23;7.97;;;7.45;;
22995;SDS011;11664;49.774;8.650;2023-04-15T03:32:52;6.38;;;5.70;;
22995;SDS011;11664;49.774;8.650;2023-04-15T03:35:18;10.45;;;5.53;;
22995;SDS011;11664;49.774;8.650;2023-04-15T03:37:49;6.78;;;6.38;;
22995;SDS011;11664;49.774;8.650;2023-04-15T03:40:19;5.47;;;5.18;;
22995;SDS011;11664;49.774;8.650;2023-04-15T03:42:53;5.90;;;5.57;;
22995;SDS011;11664;49.774;8.650;2023-04-15T03:45:19;4.68;;;4.25;;
22995;SDS011;11664;49.774;8.650;2023-04-15T03:47:48;5.53;;;3.92;;
22995;SDS011;11664;49.774;8.650;2023-04-15T03:50:13;4.40;;;4.13;;
22995;SDS011;11664;49.774;8.650;2023-04-15T03:52:39;4.85;;;4.55;;
22995;SDS011;11664;49.774;8.650;2023-04-15T03:55:08;6.95;;;6.38;;
22995;SDS011;11664;49.774;8.650;2023-04-15T03:57:37;13.02;;;12.23;;
22995;SDS011;11664;49.774;8.650;2023-04-15T04:00:04;12.77;;;11.98;;
22995;SDS011;11664;49.774;8.650;2023-04-15T04:02:30;11.88;;;11.00;;
22995;SDS011;11664;49.774;8.650;2023-04-15T04:04:56;12.80;;;11.93;;
22995;SDS011;11664;49.774;8.650;2023-04-15T04:07:24;8.63;;;8.02;;
22995;SDS011;11664;49.774;8.650;2023-04-15T04:09:56;5.78;;;5.38;;
22995;SDS011;11664;49.774;8.650;2023-04-15T04:12:22;4.20;;;4.00;;
22995;SDS011;11664;49.774;8.650;2023-04-15T04:14:51;4.53;;;4.20;;
22995;SDS011;11664;49.774;8.650;2023-04-15T04:17:16;4.80;;;4.50;;
22995;SDS011;11664;49.774;8.650;2023-04-15T04:19:42;4.05;;;3.85;;
22995;SDS011;11664;49.774;8.650;2023-04-15T04:22:07;5.10;;;4.65;;
22995;SDS011;11664;49.774;8.650;2023-04-15T04:24:36;8.13;;;6.75;;
22995;SDS011;11664;49.774;8.650;2023-04-15T04:27:01;6.82;;;5.53;;
22995;SDS011;11664;49.774;8.650;2023-04-15T04:29:27;5.47;;;5.07;;
22995;SDS011;11664;49.774;8.650;2023-04-15T04:31:53;8.30;;;7.70;;
22995;SDS011;11664;49.774;8.650;2023-04-15T04:34:33;7.85;;;7.35;;
22995;SDS011;11664;49.774;8.650;2023-04-15T04:36:59;7.20;;;6.75;;
22995;SDS011;11664;49.774;8.650;2023-04-15T04:39:25;7.15;;;6.65;;
22995;SDS011;11664;49.774;8.650;2023-04-15T04:41:59;10.32;;;9.68;;
22995;SDS011;11664;49.774;8.650;2023-04-15T04:44:25;8.20;;;7.60;;
22995;SDS011;11664;49.774;8.650;2023-04-15T04:47:00;7.43;;;6.93;;
22995;SDS011;11664;49.774;8.650;2023-04-15T04:49:25;8.23;;;7.63;;
22995;SDS011;11664;49.774;8.650;2023-04-15T04:51:54;8.65;;;8.05;;
22995;SDS011;11664;49.774;8.650;2023-04-15T04:54:20;9.52;;;8.60;;
22995;SDS011;11664;49.774;8.650;2023-04-15T04:56:46;9.43;;;8.70;;
22995;SDS011;11664;49.774;8.650;2023-04-15T04:59:11;8.32;;;7.65;;
22995;SDS011;11664;49.774;8.650;2023-04-15T05:01:37;6.93;;;6.53;;
22995;SDS011;11664;49.774;8.650;2023-04-15T05:04:03;6.78;;;5.63;;
22995;SDS011;11664;49.774;8.650;2023-04-15T05:06:29;5.65;;;4.72;;
22995;SDS011;11664;49.774;8.650;2023-04-15T05:08:55;6.00;;;4.50;;
22995;SDS011;11664;49.774;8.650;2023-04-15T05:11:21;6.68;;;4.43;;
22995;SDS011;11664;49.774;8.650;2023-04-15T05:13:46;7.18;;;6.68;;
22995;SDS011;11664;49.774;8.650;2023-04-15T05:16:12;6.15;;;5.65;;
22995;SDS011;11664;49.774;8.650;2023-04-15T05:18:46;8.20;;;7.70;;
22995;SDS011;11664;49.774;8.650;2023-04-15T05:21:12;8.80;;;8.00;;
22995;SDS011;11664;49.774;8.650;2023-04-15T05:23:43;9.55;;;8.68;;
22995;SDS011;11664;49.774;8.650;2023-04-15T05:26:09;8.40;;;7.78;;
22995;SDS011;11664;49.774;8.650;2023-04-15T05:28:35;7.78;;;7.07;;
22995;SDS011;11664;49.774;8.650;2023-04-15T05:31:00;5.15;;;4.82;;
22995;SDS011;11664;49.774;8.650;2023-04-15T05:33:26;7.70;;;4.25;;
22995;SDS011;11664;49.774;8.650;2023-04-15T05:35:58;8.70;;;7.90;;
22995;SDS011;11664;49.774;8.650;2023-04-15T05:38:26;7.32;;;5.95;;
22995;SDS011;11664;49.774;8.650;2023-04-15T05:40:52;7.05;;;6.47;;
22995;SDS011;11664;49.774;8.650;2023-04-15T05:43:17;7.55;;;7.07;;
22995;SDS011;11664;49.774;8.650;2023-04-15T05:45:43;9.45;;;7.35;;
22995;SDS011;11664;49.774;8.650;2023-04-15T05:48:11;7.55;;;7.15;;
22995;SDS011;11664;49.774;8.650;2023-04-15T05:50:39;8.07;;;6.88;;
22995;SDS011;11664;49.774;8.650;2023-04-15T05:53:09;5.18;;;4.78;;
22995;SDS011;11664;49.774;8.650;2023-04-15T05:55:34;7.20;;;6.53;;
22995;SDS011;11664;49.774;8.650;2023-04-15T05:58:03;7.38;;;5.95;;
22995;SDS011;11664;49.774;8.650;2023-04-15T06:00:29;6.05;;;5.65;;
22995;SDS011;11664;49.774;8.650;2023-04-15T06:02:55;22.48;;;11.70;;
22995;SDS011;11664;49.774;8.650;2023-04-15T06:05:22;6.25;;;5.85;;
22995;SDS011;11664;49.774;8.650;2023-04-15T06:07:50;7.70;;;7.05;;
22995;SDS011;11664;49.774;8.650;2023-04-15T06:10:16;6.15;;;5.65;;
22995;SDS011;11664;49.774;8.650;2023-04-15T06:12:44;5.25;;;4.88;;
22995;SDS011;11664;49.774;8.650;2023-04-15T06:15:13;12.98;;;12.20;;
22995;SDS011;11664;49.774;8.650;2023-04-15T06:17:39;6.95;;;6.30;;
22995;SDS011;11664;49.774;8.650;2023-04-15T06:20:08;9.70;;;8.70;;
22995;SDS011;11664;49.774;8.650;2023-04-15T06:22:33;6.78;;;6.18;;
22995;SDS011;11664;49.774;8.650;2023-04-15T06:25:02;6.18;;;5.78;;
22995;SDS011;11664;49.774;8.650;2023-04-15T06:27:31;4.05;;;3.75;;
22995;SDS011;11664;49.774;8.650;2023-04-15T06:29:56;4.57;;;4.18;;
22995;SDS011;11664;49.774;8.650;2023-04-15T06:32:25;5.00;;;4.63;;
22995;SDS011;11664;49.774;8.650;2023-04-15T06:34:50;7.50;;;6.82;;
22995;SDS011;11664;49.774;8.650;2023-04-15T06:37:28;10.40;;;9.40;;
22995;SDS011;11664;49.774;8.650;2023-04-15T06:39:54;9.10;;;8.40;;
22995;SDS011;11664;49.774;8.650;2023-04-15T06:42:20;7.43;;;6.75;;
22995;SDS011;11664;49.774;8.650;2023-04-15T06:44:45;14.88;;;13.93;;
22995;SDS011;11664;49.774;8.650;2023-04-15T06:47:20;14.10;;;12.87;;
22995;SDS011;11664;49.774;8.650;2023-04-15T06:49:51;6.40;;;6.00;;
22995;SDS011;11664;49.774;8.650;2023-04-15T06:52:17;7.47;;;6.88;;
22995;SDS011;11664;49.774;8.650;2023-04-15T06:54:48;9.55;;;8.60;;
22995;SDS011;11664;49.774;8.650;2023-04-15T06:57:17;6.57;;;4.47;;
22995;SDS011;11664;49.774;8.650;2023-04-15T06:59:45;6.05;;;5.55;;
22995;SDS011;11664;49.774;8.650;2023-04-15T07:02:11;4.47;;;4.07;;
22995;SDS011;11664;49.774;8.650;2023-04-15T07:04:38;10.05;;;6.82;;
22995;SDS011;11664;49.774;8.650;2023-04-15T07:07:04;5.80;;;4.25;;
22995;SDS011;11664;49.774;8.650;2023-04-15T07:09:29;7.85;;;4.60;;
22995;SDS011;11664;49.774;8.650;2023-04-15T07:11:59;11.88;;;6.18;;
22995;SDS011;11664;49.774;8.650;2023-04-15T07:14:24;6.78;;;5.57;;
22995;SDS011;11664;49.774;8.650;2023-04-15T07:16:50;7.18;;;6.47;;
22995;SDS011;11664;49.774;8.650;2023-04-15T07:19:15;7.43;;;6.53;;
22995;SDS011;11664;49.774;8.650;2023-04-15T07:21:44;6.57;;;5.95;;
22995;SDS011;11664;49.774;8.650;2023-04-15T07:24:11;6.10;;;5.40;;
22995;SDS011;11664;49.774;8.650;2023-04-15T07:26:36;9.65;;;6.75;;
22995;SDS011;11664;49.774;8.650;2023-04-15T07:29:02;10.23;;;9.40;;
22995;SDS011;11664;49.774;8.650;2023-04-15T07:31:27;11.70;;;10.82;;
22995;SDS011;11664;49.774;8.650;2023-04-15T07:33:53;11.68;;;10.98;;
22995;SDS011;11664;49.774;8.650;2023-04-15T07:36:28;11.10;;;10.40;;
22995;SDS011;11664;49.774;8.650;2023-04-15T07:38:54;16.67;;;14.73;;
22995;SDS011;11664;49.774;8.650;2023-04-15T07:41:20;7.55;;;5.97;;
22995;SDS011;11664;49.774;8.650;2023-04-15T07:43:49;6.00;;;5.40;;
22995;SDS011;11664;49.774;8.650;2023-04-15T07:46:17;7.28;;;4.70;;
22995;SDS011;11664;49.774;8.650;2023-04-15T07:48:43;5.82;;;4.70;;
22995;SDS011;11664;49.774;8.650;2023-04-15T07:51:09;7.82;;;4.65;;
22995;SDS011;11664;49.774;8.650;2023-04-15T07:53:38;8.50;;;4.07;;
22995;SDS011;11664;49.774;8.650;2023-04-15T07:56:03;5.55;;;4.97;;
22995;SDS011;11664;49.774;8.650;2023-04-15T07:58:29;4.95;;;4.53;;
22995;SDS011;11664;49.774;8.650;2023-04-15T08:00:55;5.85;;;5.05;;
22995;SDS011;11664;49.774;8.650;2023-04-15T08:03:24;5.75;;;4.55;;
22995;SDS011;11664;49.774;8.650;2023-04-15T08:05:50;20.30;;;5.28;;
22995;SDS011;11664;49.774;8.650;2023-04-15T08:08:16;5.72;;;4.60;;
22995;SDS011;11664;49.774;8.650;2023-04-15T08:10:41;7.90;;;5.13;;
22995;SDS011;11664;49.774;8.650;2023-04-15T08:13:10;6.43;;;5.15;;
22995;SDS011;11664;49.774;8.650;2023-04-15T08:15:36;8.07;;;4.97;;
22995;SDS011;11664;49.774;8.650;2023-04-15T08:18:01;9.02;;;5.82;;
22995;SDS011;11664;49.774;8.650;2023-04-15T08:20:27;5.30;;;4.75;;
22995;SDS011;11664;49.774;8.650;2023-04-15T08:22:56;7.32;;;5.25;;
22995;SDS011;11664;49.774;8.650;2023-04-15T08:25:25;5.43;;;4.60;;
22995;SDS011;11664;49.774;8.650;2023-04-15T08:27:54;8.68;;;6.20;;
22995;SDS011;11664;49.774;8.650;2023-04-15T08:30:24;7.65;;;6.22;;
22995;SDS011;11664;49.774;8.650;2023-04-15T08:32:53;10.98;;;6.80;;
22995;SDS011;11664;49.774;8.650;2023-04-15T08:35:18;9.02;;;6.32;;
22995;SDS011;11664;49.774;8.650;2023-04-15T08:37:44;7.55;;;5.20;;
22995;SDS011;11664;49.774;8.650;2023-04-15T08:40:10;9.32;;;5.47;;
22995;SDS011;11664;49.774;8.650;2023-04-15T08:42:36;6.97;;;5.13;;
22995;SDS011;11664;49.774;8.650;2023-04-15T08:45:06;7.22;;;5.70;;
22995;SDS011;11664;49.774;8.650;2023-04-15T08:47:34;7.18;;;6.40;;
22995;SDS011;11664;49.774;8.650;2023-04-15T08:50:07;10.38;;;6.75;;
22995;SDS011;11664;49.774;8.650;2023-04-15T08:52:36;6.15;;;5.22;;
22995;SDS011;11664;49.774;8.650;2023-04-15T08:55:02;7.30;;;6.10;;
22995;SDS011;11664;49.774;8.650;2023-04-15T08:57:29;6.95;;;6.25;;
22995;SDS011;11664;49.774;8.650;2023-04-15T08:59:59;9.57;;;6.78;;
22995;SDS011;11664;49.774;8.650;2023-04-15T09:02:27;8.23;;;7.53;;
22995;SDS011;11664;49.774;8.650;2023-04-15T09:04:56;8.02;;;7.32;;
22995;SDS011;11664;49.774;8.650;2023-04-15T09:07:25;8.00;;;7.40;;
22995;SDS011;11664;49.774;8.650;2023-04-15T09:09:51;7.55;;;6.95;;
22995;SDS011;11664;49.774;8.650;2023-04-15T09:12:16;6.80;;;6.25;;
22995;SDS011;11664;49.774;8.650;2023-04-15T09:14:45;5.93;;;5.43;;
22995;SDS011;11664;49.774;8.650;2023-04-15T09:17:17;6.82;;;5.90;;
22995;SDS011;11664;49.774;8.650;2023-04-15T09:19:48;5.10;;;4.65;;
22995;SDS011;11664;49.774;8.650;2023-04-15T09:22:16;5.20;;;4.70;;
22995;SDS011;11664;49.774;8.650;2023-04-15T09:24:45;5.38;;;4.88;;
22995;SDS011;11664;49.774;8.650;2023-04-15T09:27:11;5.38;;;4.75;;
22995;SDS011;11664;49.774;8.650;2023-04-15T09:29:40;7.18;;;4.68;;
22995;SDS011;11664;49.774;8.650;2023-04-15T09:32:10;5.43;;;4.93;;
22995;SDS011;11664;49.774;8.650;2023-04-15T09:34:46;5.93;;;5.45;;
22995;SDS011;11664;49.774;8.650;2023-04-15T09:39:49;6.78;;;6.22;;
22995;SDS011;11664;49.774;8.650;2023-04-15T09:42:16;6.50;;;5.90;;
22995;SDS011;11664;49.774;8.650;2023-04-15T09:44:48;6.93;;;6.35;;
22995;SDS011;11664;49.774;8.650;2023-04-15T09:47:28;8.77;;;8.18;;
22995;SDS011;11664;49.774;8.650;2023-04-15T09:49:55;6.18;;;5.68;;
22995;SDS011;11664;49.774;8.650;2023-04-15T09:52:25;5.45;;;4.90;;
22995;SDS011;11664;49.774;8.650;2023-04-15T09:54:52;7.60;;;6.88;;
22995;SDS011;11664;49.774;8.650;2023-04-15T09:57:24;6.57;;;6.18;;
22995;SDS011;11664;49.774;8.650;2023-04-15T10:00:06;7.57;;;7.10;;
22995;SDS011;11664;49.774;8.650;2023-04-15T10:02:36;5.47;;;5.07;;
22995;SDS011;11664;49.774;8.650;2023-04-15T10:05:05;6.22;;;4.40;;
22995;SDS011;11664;49.774;8.650;2023-04-15T10:07:34;5.13;;;4.82;;
22995;SDS011;11664;49.774;8.650;2023-04-15T10:09:59;4.93;;;4.53;;
22995;SDS011;11664;49.774;8.650;2023-04-15T10:12:26;5.65;;;4.90;;
22995;SDS011;11664;49.774;8.650;2023-04-15T10:15:03;5.20;;;4.18;;
22995;SDS011;11664;49.774;8.650;2023-04-15T10:17:29;3.80;;;3.55;;
22995;SDS011;11664;49.774;8.650;2023-04-15T10:20:02;5.25;;;3.30;;
22995;SDS011;11664;49.774;8.650;2023-04-15T10:22:29;5.03;;;4.32;;
22995;SDS011;11664;49.774;8.650;2023-04-15T10:24:56;4.53;;;4.15;;
22995;SDS011;11664;49.774;8.650;2023-04-15T10:27:22;5.47;;;5.07;;
22995;SDS011;11664;49.774;8.650;2023-04-15T10:29:49;5.10;;;4.80;;
22995;SDS011;11664;49.774;8.650;2023-04-15T10:32:16;6.70;;;6.20;;
22995;SDS011;11664;49.774;8.650;2023-04-15T10:34:47;4.17;;;3.63;;
22995;SDS011;11664;49.774;8.650;2023-04-15T10:37:19;4.60;;;4.25;;
22995;SDS011;11664;49.774;8.650;2023-04-15T10:39:46;4.10;;;3.90;;
22995;SDS011;11664;49.774;8.650;2023-04-15T10:42:13;4.72;;;4.43;;
22995;SDS011;11664;49.774;8.650;2023-04-15T10:44:41;4.00;;;3.80;;
22995;SDS011;11664;49.774;8.650;2023-04-15T10:47:16;4.78;;;4.47;;
22995;SDS011;11664;49.774;8.650;2023-04-15T10:49:44;6.78;;;6.38;;
22995;SDS011;11664;49.774;8.650;2023-04-15T10:52:12;5.82;;;5.45;;
22995;SDS011;11664;49.774;8.650;2023-04-15T10:54:39;6.30;;;5.90;;
22995;SDS011;11664;49.774;8.650;2023-04-15T11:01:59;7.03;;;6.60;;
22995;SDS011;11664;49.774;8.650;2023-04-15T11:15:28;5.25;;;4.95;;
22995;SDS011;11664;49.774;8.650;2023-04-15T11:18:18;4.10;;;3.90;;
22995;SDS011;11664;49.774;8.650;2023-04-15T11:20:43;5.07;;;4.78;;
22995;SDS011;11664;49.774;8.650;2023-04-15T11:23:10;4.60;;;4.30;;
22995;SDS011;11664;49.774;8.650;2023-04-15T11:25:45;4.60;;;4.20;;
22995;SDS011;11664;49.774;8.650;2023-04-15T11:28:11;4.97;;;4.68;;
22995;SDS011;11664;49.774;8.650;2023-04-15T11:30:38;4.68;;;4.32;;
22995;SDS011;11664;49.774;8.650;2023-04-15T11:33:04;5.22;;;4.82;;
22995;SDS011;11664;49.774;8.650;2023-04-15T11:35:35;5.65;;;5.35;;
22995;SDS011;11664;49.774;8.650;2023-04-15T11:38:01;5.43;;;5.07;;
22995;SDS011;11664;49.774;8.650;2023-04-15T11:40:32;5.03;;;4.72;;
22995;SDS011;11664;49.774;8.650;2023-04-15T11:43:12;4.50;;;4.20;;
22995;SDS011;11664;49.774;8.650;2023-04-15T11:45:55;4.35;;;3.40;;
22995;SDS011;11664;49.774;8.650;2023-04-15T11:48:35;8.68;;;4.40;;
22995;SDS011;11664;49.774;8.650;2023-04-15T11:51:05;3.83;;;3.40;;
22995;SDS011;11664;49.774;8.650;2023-04-15T11:53:35;3.10;;;2.90;;
22995;SDS011;11664;49.774;8.650;2023-04-15T11:56:16;3.92;;;3.60;;
22995;SDS011;11664;49.774;8.650;2023-04-15T11:58:55;3.47;;;3.25;;
22995;SDS011;11664;49.774;8.650;2023-04-15T12:01:34;4.50;;;3.38;;
22995;SDS011;11664;49.774;8.650;2023-04-15T12:04:09;3.30;;;3.10;;
22995;SDS011;11664;49.774;8.650;2023-04-15T12:06:36;3.55;;;3.20;;
22995;SDS011;11664;49.774;8.650;2023-04-15T12:09:06;4.28;;;3.70;;
22995;SDS011;11664;49.774;8.650;2023-04-15T12:11:51;3.30;;;3.10;;
22995;SDS011;11664;49.774;8.650;2023-04-15T12:14:25;3.58;;;3.05;;
22995;SDS011;11664;49.774;8.650;2023-04-15T12:17:00;3.33;;;3.13;;
22995;SDS011;11664;49.774;8.650;2023-04-15T12:22:03;3.03;;;2.83;;
22995;SDS011;11664;49.774;8.650;2023-04-15T12:24:53;3.08;;;2.83;;
22995;SDS011;11664;49.774;8.650;2023-04-15T12:27:24;3.63;;;3.20;;
22995;SDS011;11664;49.774;8.650;2023-04-15T12:29:50;3.78;;;3.53;;
22995;SDS011;11664;49.774;8.650;2023-04-15T12:32:34;4.13;;;3.35;;
22995;SDS011;11664;49.774;8.650;2023-04-15T12:35:00;3.40;;;3.20;;
22995;SDS011;11664;49.774;8.650;2023-04-15T12:37:26;3.70;;;3.50;;
22995;SDS011;11664;49.774;8.650;2023-04-15T12:39:52;2.90;;;2.70;;
22995;SDS011;11664;49.774;8.650;2023-04-15T12:42:18;3.75;;;3.55;;
22995;SDS011;11664;49.774;8.650;2023-04-15T12:44:44;3.72;;;3.42;;
22995;SDS011;11664;49.774;8.650;2023-04-15T12:47:10;5.45;;;5.05;;
22995;SDS011;11664;49.774;8.650;2023-04-15T12:49:37;6.38;;;5.75;;
22995;SDS011;11664;49.774;8.650;2023-04-15T12:52:03;7.72;;;7.28;;
22995;SDS011;11664;49.774;8.650;2023-04-15T12:54:32;3.92;;;3.55;;
22995;SDS011;11664;49.774;8.650;2023-04-15T12:57:01;3.53;;;3.22;;
22995;SDS011;11664;49.774;8.650;2023-04-15T12:59:27;4.97;;;4.47;;
22995;SDS011;11664;49.774;8.650;2023-04-15T13:01:53;4.63;;;4.30;;
22995;SDS011;11664;49.774;8.650;2023-04-15T13:04:18;3.75;;;3.55;;
22995;SDS011;11664;49.774;8.650;2023-04-15T13:06:45;13.43;;;12.35;;
22995;SDS011;11664;49.774;8.650;2023-04-15T13:09:10;13.85;;;12.93;;
22995;SDS011;11664;49.774;8.650;2023-04-15T13:11:36;8.63;;;8.00;;
22995;SDS011;11664;49.774;8.650;2023-04-15T13:14:02;5.82;;;5.22;;
22995;SDS011;11664;49.774;8.650;2023-04-15T13:16:29;6.22;;;5.72;;
22995;SDS011;11664;49.774;8.650;2023-04-15T13:18:59;6.20;;;5.72;;
22995;SDS011;11664;49.774;8.650;2023-04-15T13:21:25;5.53;;;5.03;;
22995;SDS011;11664;49.774;8.650;2023-04-15T13:23:54;4.80;;;4.40;;
22995;SDS011;11664;49.774;8.650;2023-04-15T13:26:19;5.05;;;4.65;;
22995;SDS011;11664;49.774;8.650;2023-04-15T13:28:45;5.10;;;4.70;;
22995;SDS011;11664;49.774;8.650;2023-04-15T13:31:14;4.43;;;3.95;;
22995;SDS011;11664;49.774;8.650;2023-04-15T13:33:42;4.05;;;3.75;;
22995;SDS011;11664;49.774;8.650;2023-04-15T13:36:08;3.75;;;3.45;;
22995;SDS011;11664;49.774;8.650;2023-04-15T13:38:33;3.83;;;3.63;;
22995;SDS011;11664;49.774;8.650;2023-04-15T13:40:59;4.75;;;4.32;;
22995;SDS011;11664;49.774;8.650;2023-04-15T13:43:24;4.25;;;3.95;;
22995;SDS011;11664;49.774;8.650;2023-04-15T13:45:56;4.80;;;4.38;;
22995;SDS011;11664;49.774;8.650;2023-04-15T13:48:21;4.63;;;3.97;;
22995;SDS011;11664;49.774;8.650;2023-04-15T13:50:47;3.70;;;3.40;;
22995;SDS011;11664;49.774;8.650;2023-04-15T13:53:16;3.75;;;3.45;;
22995;SDS011;11664;49.774;8.650;2023-04-15T13:55:41;4.03;;;3.67;;
22995;SDS011;11664;49.774;8.650;2023-04-15T13:58:19;3.70;;;3.40;;
22995;SDS011;11664;49.774;8.650;2023-04-15T14:00:48;4.38;;;3.42;;
22995;SDS011;11664;49.774;8.650;2023-04-15T14:03:13;4.22;;;3.92;;
22995;SDS011;11664;49.774;8.650;2023-04-15T14:05:39;4.07;;;3.78;;
22995;SDS011;11664;49.774;8.650;2023-04-15T14:08:04;4.45;;;4.10;;
22995;SDS011;11664;49.774;8.650;2023-04-15T14:10:33;5.28;;;4.72;;
22995;SDS011;11664;49.774;8.650;2023-04-15T14:13:02;4.80;;;4.43;;
22995;SDS011;11664;49.774;8.650;2023-04-15T14:15:34;5.50;;;5.05;;
22995;SDS011;11664;49.774;8.650;2023-04-15T14:17:59;5.63;;;5.22;;
22995;SDS011;11664;49.774;8.650;2023-04-15T14:20:25;5.45;;;5.05;;
22995;SDS011;11664;49.774;8.650;2023-04-15T14:22:51;5.30;;;4.97;;
22995;SDS011;11664;49.774;8.650;2023-04-15T14:25:17;5.03;;;4.68;;
22995;SDS011;11664;49.774;8.650;2023-04-15T14:27:42;6.82;;;6.43;;
22995;SDS011;11664;49.774;8.650;2023-04-15T14:30:08;6.35;;;5.97;;
22995;SDS011;11664;49.774;8.650;2023-04-15T14:32:33;4.53;;;4.22;;
22995;SDS011;11664;49.774;8.650;2023-04-15T14:34:59;7.70;;;7.10;;
22995;SDS011;11664;49.774;8.650;2023-04-15T14:37:24;7.28;;;6.72;;
22995;SDS011;11664;49.774;8.650;2023-04-15T14:39:51;6.90;;;6.50;;
22995;SDS011;11664;49.774;8.650;2023-04-15T14:42:16;5.85;;;5.55;;
22995;SDS011;11664;49.774;8.650;2023-04-15T14:44:45;3.53;;;3.33;;
22995;SDS011;11664;49.774;8.650;2023-04-15T14:47:10;4.30;;;4.03;;
22995;SDS011;11664;49.774;8.650;2023-04-15T14:49:42;3.80;;;3.60;;
22995;SDS011;11664;49.774;8.650;2023-04-15T14:52:11;4.43;;;4.22;;
22995;SDS011;11664;49.774;8.650;2023-04-15T14:54:36;4.82;;;4.55;;
22995;SDS011;11664;49.774;8.650;2023-04-15T14:57:02;4.22;;;4.03;;
22995;SDS011;11664;49.774;8.650;2023-04-15T14:59:31;4.72;;;4.43;;
22995;SDS011;11664;49.774;8.650;2023-04-15T15:01:57;6.03;;;5.72;;
22995;SDS011;11664;49.774;8.650;2023-04-15T15:04:25;7.68;;;7.28;;
22995;SDS011;11664;49.774;8.650;2023-04-15T15:06:54;3.67;;;3.47;;
22995;SDS011;11664;49.774;8.650;2023-04-15T15:09:32;3.90;;;3.60;;
22995;SDS011;11664;49.774;8.650;2023-04-15T15:11:57;4.85;;;4.60;;
22995;SDS011;11664;49.774;8.650;2023-04-15T15:14:25;4.25;;;3.95;;
22995;SDS011;11664;49.774;8.650;2023-04-15T15:16:54;3.78;;;3.58;;